createdAt,value
2023-02-03T00:00:48.505Z,3.80
2023-02-03T00:03:19.049Z,3.80
2023-02-03T00:05:50.278Z,3.70
2023-02-03T00:08:22.516Z,3.70
2023-02-03T00:10:53.328Z,3.70
2023-02-03T00:13:25.469Z,3.60
2023-02-03T00:15:56.009Z,3.50
2023-02-03T00:18:26.530Z,3.60
2023-02-03T00:20:57.082Z,3.60
2023-02-03T00:23:29.181Z,3.70
2023-02-03T00:25:59.899Z,3.60
2023-02-03T00:28:32.515Z,3.70
2023-02-03T00:31:03.059Z,3.90
2023-02-03T00:33:33.830Z,4.10
2023-02-03T00:36:08.712Z,4.00
2023-02-03T00:38:39.319Z,4.20
2023-02-03T00:41:09.789Z,4.10
2023-02-03T00:43:40.408Z,4.20
2023-02-03T00:46:11.177Z,4.20
2023-02-03T00:48:41.783Z,4.30
2023-02-03T00:51:12.266Z,4.20
2023-02-03T00:53:42.771Z,4.00
2023-02-03T00:56:13.409Z,4.10
2023-02-03T00:58:44.378Z,4.10
2023-02-03T01:01:14.992Z,4.00
2023-02-03T01:03:45.884Z,4.00
2023-02-03T01:06:19.200Z,3.90
2023-02-03T01:08:50.530Z,3.90
2023-02-03T01:11:23.300Z,3.80
2023-02-03T01:13:55.799Z,3.90
2023-02-03T01:16:28.656Z,3.90
2023-02-03T01:18:59.366Z,3.80
2023-02-03T01:21:29.924Z,3.80
2023-02-03T01:24:01.643Z,3.80
2023-02-03T01:26:32.316Z,3.80
2023-02-03T01:29:03.051Z,3.70
2023-02-03T01:31:37.149Z,3.60
2023-02-03T01:34:08.830Z,3.70
2023-02-03T01:36:40.449Z,3.60
2023-02-03T01:39:11.621Z,3.60
2023-02-03T01:41:42.782Z,3.70
2023-02-03T01:44:39.665Z,3.70
2023-02-03T01:47:19.998Z,3.60
2023-02-03T01:49:54.412Z,3.60
2023-02-03T01:52:25.992Z,3.40
2023-02-03T01:54:59.715Z,3.50
2023-02-03T01:57:33.300Z,3.50
2023-02-03T02:00:07.615Z,3.50
2023-02-03T02:02:38.654Z,3.60
2023-02-03T02:05:13.430Z,3.70
2023-02-03T02:07:44.980Z,3.60
2023-02-03T02:10:15.938Z,3.60
2023-02-03T02:12:46.654Z,3.60
2023-02-03T02:15:18.213Z,3.50
2023-02-03T02:21:26.424Z,3.30
2023-02-03T02:24:13.234Z,3.10
2023-02-03T02:27:01.217Z,3.00
2023-02-03T02:30:10.279Z,2.80
2023-02-03T02:32:49.211Z,2.50
2023-02-03T02:35:25.680Z,2.20
2023-02-03T02:37:59.504Z,2.00
2023-02-03T02:40:33.116Z,1.90
2023-02-03T02:43:08.469Z,1.70
2023-02-03T02:45:45.023Z,2.00
2023-02-03T02:48:20.673Z,1.80
2023-02-03T02:50:54.406Z,1.80
2023-02-03T02:53:28.093Z,1.80
2023-02-03T02:56:01.289Z,2.00
2023-02-03T02:58:33.521Z,2.00
2023-02-03T03:01:22.949Z,2.10
2023-02-03T03:03:53.721Z,2.10
2023-02-03T03:06:27.528Z,1.90
2023-02-03T03:09:01.260Z,1.90
2023-02-03T03:11:34.892Z,2.10
2023-02-03T03:14:08.119Z,2.00
2023-02-03T03:16:41.839Z,1.80
2023-02-03T03:19:14.470Z,1.60
2023-02-03T03:21:48.085Z,1.40
2023-02-03T03:24:21.562Z,1.20
2023-02-03T03:26:56.053Z,1.50
2023-02-03T03:29:29.861Z,1.40
2023-02-03T03:32:01.241Z,1.20
2023-02-03T03:34:33.322Z,1.10
2023-02-03T03:37:08.629Z,1.00
2023-02-03T03:39:42.643Z,1.10
2023-02-03T03:42:16.626Z,1.00
2023-02-03T03:44:51.260Z,1.00
2023-02-03T03:47:25.545Z,1.10
2023-02-03T03:49:58.073Z,1.30
2023-02-03T03:52:31.764Z,1.60
2023-02-03T03:55:04.564Z,1.80
2023-02-03T03:57:38.960Z,1.80
2023-02-03T04:00:14.231Z,1.80
2023-02-03T04:02:47.439Z,1.40
2023-02-03T04:05:18.667Z,1.20
2023-02-03T04:07:50.270Z,0.90
2023-02-03T04:10:26.228Z,1.30
2023-02-03T04:12:57.099Z,1.70
2023-02-03T04:15:28.000Z,1.70
2023-02-03T04:18:00.729Z,1.80
2023-02-03T04:20:32.262Z,1.90
2023-02-03T04:23:02.938Z,1.60
2023-02-03T04:25:33.634Z,1.50
2023-02-03T04:28:04.464Z,1.50
2023-02-03T04:30:35.097Z,1.20
2023-02-03T04:33:05.661Z,1.30
2023-02-03T04:35:36.364Z,1.10
2023-02-03T04:38:06.963Z,1.20
2023-02-03T04:40:37.562Z,1.50
2023-02-03T04:43:11.126Z,1.40
2023-02-03T04:45:41.717Z,1.00
2023-02-03T04:48:12.267Z,0.80
2023-02-03T04:50:42.749Z,0.50
2023-02-03T04:53:15.662Z,0.50
2023-02-03T04:55:48.912Z,0.70
2023-02-03T04:58:19.434Z,0.90
2023-02-03T05:00:50.044Z,0.80
2023-02-03T05:03:20.714Z,0.60
2023-02-03T05:05:51.901Z,0.50
2023-02-03T05:08:22.423Z,0.40
2023-02-03T05:10:52.948Z,0.30
2023-02-03T05:13:23.601Z,0.40
2023-02-03T05:15:54.125Z,0.40
2023-02-03T05:18:24.603Z,0.30
2023-02-03T05:20:55.108Z,0.30
2023-02-03T05:23:25.622Z,0.40
2023-02-03T05:25:56.131Z,0.80
2023-02-03T05:28:26.643Z,0.70
2023-02-03T05:30:58.652Z,0.80
2023-02-03T05:33:29.700Z,0.90
2023-02-03T05:36:00.202Z,1.00
2023-02-03T05:38:30.684Z,1.00
2023-02-03T05:41:18.713Z,0.90
2023-02-03T05:43:49.195Z,0.60
2023-02-03T05:46:19.842Z,0.40
2023-02-03T05:48:50.412Z,0.20
2023-02-03T05:51:20.891Z,0.20
2023-02-03T05:53:51.363Z,0.30
2023-02-03T05:56:21.964Z,0.20
2023-02-03T05:58:53.511Z,0.00
2023-02-03T06:01:24.352Z,0.00
2023-02-03T06:03:55.007Z,0.00
2023-02-03T06:06:27.417Z,-0.10
2023-02-03T06:08:57.928Z,-0.20
2023-02-03T06:11:28.450Z,-0.10
2023-02-03T06:13:59.707Z,-0.20
2023-02-03T06:16:30.852Z,0.10
2023-02-03T06:19:02.246Z,0.10
2023-02-03T06:21:32.871Z,0.30
2023-02-03T06:24:03.970Z,0.50
2023-02-03T06:26:34.804Z,0.50
2023-02-03T06:29:05.334Z,0.20
2023-02-03T06:31:35.882Z,0.00
2023-02-03T06:34:06.567Z,0.10
2023-02-03T06:36:37.157Z,0.30
2023-02-03T06:39:07.685Z,0.30
2023-02-03T06:41:38.191Z,0.10
2023-02-03T06:44:09.570Z,0.00
2023-02-03T06:46:40.613Z,-0.20
2023-02-03T06:49:11.226Z,-0.20
2023-02-03T06:51:41.813Z,-0.30
2023-02-03T06:54:13.520Z,-0.20
2023-02-03T06:56:44.050Z,-0.20
2023-02-03T06:59:14.548Z,0.00
2023-02-03T07:01:45.085Z,0.20
2023-02-03T07:04:15.677Z,0.00
2023-02-03T07:06:46.254Z,-0.10
2023-02-03T07:09:17.434Z,-0.10
2023-02-03T07:11:47.941Z,-0.30
2023-02-03T07:14:18.679Z,0.20
2023-02-03T07:16:54.727Z,0.60
2023-02-03T07:19:27.779Z,0.70
2023-02-03T07:21:58.431Z,0.80
2023-02-03T07:24:29.359Z,0.80
2023-02-03T07:26:59.998Z,0.90
2023-02-03T07:29:30.478Z,1.00
2023-02-03T07:32:03.345Z,1.00
2023-02-03T07:34:35.062Z,1.10
2023-02-03T07:37:05.557Z,1.00
2023-02-03T07:39:36.074Z,1.10
2023-02-03T07:42:07.069Z,1.30
2023-02-03T07:44:37.883Z,1.20
2023-02-03T07:47:08.654Z,1.20
2023-02-03T07:49:39.104Z,1.20
2023-02-03T07:52:09.709Z,1.10
2023-02-03T07:54:40.272Z,1.10
2023-02-03T07:57:10.752Z,1.30
2023-02-03T07:59:41.835Z,1.40
2023-02-03T08:02:12.686Z,1.50
2023-02-03T08:04:43.261Z,1.50
2023-02-03T08:07:13.899Z,1.50
2023-02-03T08:12:24.093Z,1.50
2023-02-03T08:14:54.687Z,1.70
2023-02-03T08:17:25.262Z,1.80
2023-02-03T08:19:55.855Z,1.90
2023-02-03T08:22:26.524Z,2.00
2023-02-03T08:24:59.081Z,2.20
2023-02-03T08:27:29.595Z,2.40
2023-02-03T08:30:00.493Z,2.40
2023-02-03T08:32:31.308Z,2.40
2023-02-03T08:35:02.056Z,2.40
2023-02-03T08:37:32.749Z,2.40
2023-02-03T08:40:03.498Z,2.50
2023-02-03T08:42:34.551Z,2.50
2023-02-03T08:45:05.847Z,2.70
2023-02-03T08:47:37.455Z,2.70
2023-02-03T08:50:10.169Z,2.70
2023-02-03T08:52:41.000Z,2.70
2023-02-03T08:55:12.357Z,2.90
2023-02-03T08:57:43.060Z,3.00
2023-02-03T09:00:17.077Z,3.20
2023-02-03T09:02:48.054Z,3.30
2023-02-03T09:05:19.060Z,3.40
2023-02-03T09:07:49.661Z,3.50
2023-02-03T09:10:20.817Z,3.70
2023-02-03T09:12:51.586Z,3.70
2023-02-03T09:15:22.352Z,3.70
2023-02-03T09:17:53.907Z,3.80
2023-02-03T09:20:26.629Z,4.10
2023-02-03T09:22:59.808Z,4.10
2023-02-03T09:25:30.472Z,4.20
2023-02-03T09:28:02.755Z,4.20
2023-02-03T09:30:33.515Z,4.40
2023-02-03T09:33:04.284Z,4.30
2023-02-03T09:35:34.995Z,4.30
2023-02-03T09:38:05.597Z,4.40
2023-02-03T09:40:38.430Z,4.20
2023-02-03T09:43:16.009Z,4.30
2023-02-03T09:45:46.945Z,4.30
2023-02-03T09:48:20.772Z,4.20
2023-02-03T09:50:52.766Z,4.30
2023-02-03T09:53:29.359Z,4.50
2023-02-03T09:56:00.990Z,4.70
2023-02-03T09:58:35.392Z,4.80
2023-02-03T10:01:10.210Z,4.90
2023-02-03T10:03:45.143Z,5.10
2023-02-03T10:06:24.826Z,5.20
2023-02-03T10:09:01.142Z,5.20
2023-02-03T10:11:42.693Z,5.40
2023-02-03T10:14:22.173Z,5.30
2023-02-03T10:17:01.313Z,5.40
2023-02-03T10:19:36.169Z,5.50
2023-02-03T10:22:07.996Z,5.30
2023-02-03T10:24:42.276Z,5.20
2023-02-03T10:27:17.345Z,5.50
2023-02-03T10:29:51.373Z,5.80
2023-02-03T10:32:22.095Z,5.90
2023-02-03T10:34:52.875Z,5.90
2023-02-03T10:37:30.354Z,5.90
2023-02-03T10:40:03.441Z,5.80
2023-02-03T10:42:54.895Z,6.00
2023-02-03T10:45:25.692Z,6.30
2023-02-03T10:47:58.420Z,6.20
2023-02-03T10:50:32.283Z,6.20
2023-02-03T10:53:27.972Z,6.40
2023-02-03T10:56:06.894Z,6.40
2023-02-03T10:58:39.367Z,6.60
2023-02-03T11:01:13.010Z,6.70
2023-02-03T11:03:46.410Z,6.80
2023-02-03T11:06:18.634Z,7.10
2023-02-03T11:08:50.903Z,7.20
2023-02-03T11:11:26.538Z,7.20
2023-02-03T11:14:14.264Z,7.30
2023-02-03T11:16:47.473Z,7.60
2023-02-03T11:19:21.896Z,7.50
2023-02-03T11:21:56.399Z,7.30
2023-02-03T11:24:29.764Z,7.60
2023-02-03T11:27:04.952Z,7.60
2023-02-03T11:29:37.291Z,7.60
2023-02-03T11:32:16.285Z,7.50
2023-02-03T11:34:52.504Z,7.70
2023-02-03T11:37:31.990Z,7.80
2023-02-03T11:40:37.249Z,8.20
2023-02-03T11:43:15.961Z,8.20
2023-02-03T11:45:49.070Z,8.40
2023-02-03T11:48:28.791Z,8.60
2023-02-03T11:51:04.847Z,9.30
2023-02-03T11:53:56.625Z,9.30
2023-02-03T11:56:28.831Z,9.10
2023-02-03T11:59:23.057Z,9.30
2023-02-03T12:05:28.191Z,9.40
2023-02-03T12:08:06.710Z,9.20
2023-02-03T12:10:43.874Z,9.30
2023-02-03T12:13:23.222Z,9.70
2023-02-03T12:16:02.912Z,9.70
2023-02-03T12:18:42.061Z,9.50
2023-02-03T12:21:25.021Z,9.40
2023-02-03T12:23:58.661Z,9.80
2023-02-03T12:26:32.865Z,9.70
2023-02-03T12:29:06.631Z,9.40
2023-02-03T12:31:40.760Z,10.00
2023-02-03T12:34:17.623Z,10.50
2023-02-03T12:36:53.178Z,10.30
2023-02-03T12:39:28.154Z,10.70
2023-02-03T12:42:02.117Z,10.80
2023-02-03T12:44:36.484Z,10.50
2023-02-03T12:47:10.069Z,10.50
2023-02-03T12:49:45.276Z,10.20
2023-02-03T12:52:21.668Z,10.40
2023-02-03T12:54:56.520Z,10.10
2023-02-03T12:57:30.917Z,10.40
2023-02-03T13:00:13.130Z,10.30
2023-02-03T13:02:48.866Z,10.10
2023-02-03T13:05:25.303Z,10.20
2023-02-03T13:08:00.055Z,10.10
2023-02-03T13:10:33.864Z,10.10
2023-02-03T13:13:09.029Z,10.10
2023-02-03T13:15:43.972Z,10.00
2023-02-03T13:18:18.986Z,9.90
2023-02-03T13:20:49.729Z,9.60
2023-02-03T13:23:20.590Z,9.60
2023-02-03T13:26:11.177Z,9.60
2023-02-03T13:28:53.425Z,9.40
2023-02-03T13:31:32.555Z,9.30
2023-02-03T13:34:39.100Z,9.30
2023-02-03T13:40:38.402Z,9.20
2023-02-03T13:43:13.826Z,9.10
2023-02-03T13:45:47.644Z,9.20
2023-02-03T13:48:22.376Z,9.20
2023-02-03T13:50:56.089Z,9.20
2023-02-03T13:53:29.642Z,9.30
2023-02-03T13:56:02.125Z,9.30
2023-02-03T13:58:35.556Z,9.20
2023-02-03T14:01:29.468Z,9.20
2023-02-03T14:04:01.425Z,9.10
2023-02-03T14:07:07.513Z,9.00
2023-02-03T14:09:43.387Z,9.20
2023-02-03T14:12:41.423Z,9.20
2023-02-03T14:15:28.443Z,9.30
2023-02-03T14:18:09.053Z,9.30
2023-02-03T14:20:49.174Z,9.10
2023-02-03T14:23:24.540Z,9.00
2023-02-03T14:25:58.241Z,9.00
2023-02-03T14:28:33.536Z,9.10
2023-02-03T14:31:17.926Z,9.10
2023-02-03T14:34:11.900Z,9.20
2023-02-03T14:36:55.249Z,9.10
2023-02-03T14:39:58.441Z,9.00
2023-02-03T14:43:17.306Z,9.10
2023-02-03T14:46:21.968Z,9.00
2023-02-03T14:49:33.223Z,9.00
2023-02-03T14:55:15.447Z,9.00
2023-02-03T14:57:49.658Z,8.90
2023-02-03T15:00:38.409Z,8.90
2023-02-03T15:03:22.982Z,8.90
2023-02-03T15:05:56.643Z,8.90
2023-02-03T15:08:43.199Z,8.90
2023-02-03T15:11:31.699Z,8.80
2023-02-03T15:14:25.912Z,8.90
2023-02-03T15:17:01.990Z,8.90
2023-02-03T15:19:35.963Z,8.90
2023-02-03T15:22:21.659Z,8.90
2023-02-03T15:24:54.427Z,8.90
2023-02-03T15:27:27.647Z,8.80
2023-02-03T15:29:59.280Z,8.70
2023-02-03T15:32:32.938Z,8.70
2023-02-03T15:35:06.563Z,8.60
2023-02-03T15:37:40.292Z,8.60
2023-02-03T15:40:16.208Z,8.40
2023-02-03T15:42:51.235Z,8.30
2023-02-03T15:45:24.817Z,8.30
2023-02-03T15:47:57.319Z,8.20
2023-02-03T15:50:34.538Z,8.20
2023-02-03T15:53:09.552Z,8.20
2023-02-03T15:55:43.220Z,8.10
2023-02-03T15:58:19.276Z,8.10
2023-02-03T16:00:52.802Z,8.00
2023-02-03T16:03:26.359Z,8.10
2023-02-03T16:05:57.369Z,8.00
2023-02-03T16:08:41.877Z,7.90
2023-02-03T16:11:34.232Z,7.80
2023-02-03T16:14:07.390Z,7.80
2023-02-03T16:16:49.308Z,7.80
2023-02-03T16:19:17.503Z,7.60
2023-02-03T16:21:56.892Z,7.70
2023-02-03T16:24:41.270Z,7.60
2023-02-03T16:30:44.126Z,7.10
2023-02-03T16:33:35.771Z,6.80
2023-02-03T16:36:31.015Z,6.80
2023-02-03T16:39:22.076Z,6.90
2023-02-03T16:42:11.813Z,6.90
2023-02-03T16:44:59.874Z,6.70
2023-02-03T16:47:51.166Z,6.60
2023-02-03T16:50:42.096Z,6.80
2023-02-03T16:53:15.701Z,6.60
2023-02-03T16:55:47.205Z,6.40
2023-02-03T16:58:18.557Z,6.60
2023-02-03T17:00:53.162Z,6.40
2023-02-03T17:03:26.119Z,6.70
2023-02-03T17:05:58.875Z,6.50
2023-02-03T17:08:30.466Z,6.50
2023-02-03T17:11:07.520Z,6.40
2023-02-03T17:13:40.532Z,6.30
2023-02-03T17:16:16.389Z,6.30
2023-02-03T17:18:48.368Z,6.10
2023-02-03T17:21:22.034Z,6.00
2023-02-03T17:23:54.237Z,6.00
2023-02-03T17:26:25.059Z,5.80
2023-02-03T17:28:56.386Z,5.50
2023-02-03T17:31:27.235Z,5.40
2023-02-03T17:33:58.653Z,5.60
2023-02-03T17:36:29.294Z,5.60
2023-02-03T17:55:39.026Z,6.00
2023-02-03T17:58:10.270Z,5.90
2023-02-03T18:00:41.042Z,5.90
2023-02-03T18:03:11.977Z,5.70
2023-02-03T18:05:44.035Z,5.70
2023-02-03T18:08:16.664Z,5.60
2023-02-03T18:10:47.005Z,5.60
2023-02-03T18:13:18.411Z,5.50
2023-02-03T18:15:49.107Z,5.70
2023-02-03T18:18:20.982Z,5.50
2023-02-03T18:20:51.502Z,5.60
2023-02-03T18:23:22.173Z,5.70
2023-02-03T18:25:55.874Z,5.70
2023-02-03T18:28:26.651Z,5.70
2023-02-03T18:31:03.813Z,5.80
2023-02-03T18:33:35.227Z,5.70
2023-02-03T18:36:07.276Z,5.70
2023-02-03T18:38:38.914Z,5.70
2023-02-03T18:41:11.390Z,5.70
2023-02-03T18:43:42.355Z,5.60
2023-02-03T18:46:14.935Z,5.50
2023-02-03T18:48:45.899Z,5.40
2023-02-03T18:51:18.735Z,5.30
2023-02-03T18:53:50.076Z,5.40
2023-02-03T18:56:22.813Z,5.30
2023-02-03T18:58:53.580Z,5.40
2023-02-03T19:01:27.034Z,5.40
2023-02-03T19:03:59.616Z,5.80
2023-02-03T19:06:32.302Z,5.90
2023-02-03T19:09:03.621Z,6.10
2023-02-03T19:11:35.459Z,6.00
2023-02-03T19:14:09.706Z,5.90
2023-02-03T19:16:40.521Z,5.70
2023-02-03T19:19:13.496Z,5.60
2023-02-03T19:21:45.079Z,5.30
2023-02-03T19:24:17.750Z,5.40
2023-02-03T19:26:49.067Z,5.50
2023-02-03T19:29:19.961Z,5.50
2023-02-03T19:31:50.839Z,5.40
2023-02-03T19:34:21.729Z,5.30
2023-02-03T19:36:53.170Z,5.30
2023-02-03T19:39:24.587Z,5.20
2023-02-03T19:41:55.540Z,5.30
2023-02-03T19:44:26.236Z,4.80
2023-02-03T19:46:57.334Z,4.70
2023-02-03T19:49:29.013Z,4.70
2023-02-03T19:52:00.062Z,5.00
2023-02-03T19:54:31.984Z,5.10
2023-02-03T19:57:03.386Z,4.80
2023-02-03T19:59:34.706Z,4.60
2023-02-03T20:02:13.774Z,4.50
2023-02-03T20:04:40.056Z,4.30
2023-02-03T20:07:11.362Z,4.30
2023-02-03T20:09:42.598Z,4.30
2023-02-03T20:12:14.188Z,4.20
2023-02-03T20:14:46.421Z,4.20
2023-02-03T20:17:17.443Z,3.90
2023-02-03T20:19:48.657Z,3.80
2023-02-03T20:22:19.304Z,3.80
2023-02-03T20:24:49.961Z,3.90
2023-02-03T20:27:20.843Z,3.90
2023-02-03T20:29:51.626Z,4.00
2023-02-03T20:32:24.049Z,3.90
2023-02-03T20:34:55.004Z,3.70
2023-02-03T20:37:26.283Z,3.70
2023-02-03T20:39:57.290Z,4.00
2023-02-03T20:42:28.378Z,4.10
2023-02-03T20:44:59.486Z,4.20
2023-02-03T20:47:30.611Z,4.20
2023-02-03T20:50:01.593Z,4.10
2023-02-03T20:52:32.699Z,3.90
2023-02-03T20:55:08.842Z,4.00
2023-02-03T20:57:39.789Z,4.10
2023-02-03T21:00:19.446Z,3.90
2023-02-03T21:03:08.702Z,4.10
2023-02-03T21:05:42.045Z,4.20
2023-02-03T21:08:17.118Z,4.20
2023-02-03T21:10:49.343Z,4.20
2023-02-03T21:13:22.215Z,4.30
2023-02-03T21:15:54.099Z,4.10
2023-02-03T21:18:39.957Z,4.10
2023-02-03T21:21:17.423Z,4.10
2023-02-03T21:23:48.968Z,4.10
2023-02-03T21:26:21.788Z,3.90
2023-02-03T21:28:54.351Z,3.80
2023-02-03T21:31:28.769Z,3.90
2023-02-03T21:34:00.694Z,3.80
2023-02-03T21:36:34.632Z,3.60
2023-02-03T21:39:08.759Z,3.60
2023-02-03T21:41:39.685Z,3.80
2023-02-03T21:44:22.897Z,3.60
2023-02-03T21:46:53.759Z,3.50
2023-02-03T21:49:24.794Z,3.40
2023-02-03T21:51:55.965Z,3.80
2023-02-03T21:54:30.401Z,3.80
2023-02-03T21:57:01.858Z,3.70
2023-02-03T21:59:41.625Z,3.70
2023-02-03T22:02:30.413Z,3.80
2023-02-03T22:05:02.266Z,3.80
2023-02-03T22:07:33.734Z,3.90
2023-02-03T22:10:04.661Z,4.00
2023-02-03T22:12:35.763Z,3.90
2023-02-03T22:15:07.761Z,3.80
2023-02-03T22:17:38.831Z,3.90
2023-02-03T22:20:12.060Z,3.90
2023-02-03T22:22:43.089Z,3.80
2023-02-03T22:25:14.087Z,3.70
2023-02-03T22:27:45.147Z,3.80
2023-02-03T22:30:19.141Z,3.70
2023-02-03T22:32:50.265Z,3.60
2023-02-03T22:35:21.159Z,3.60
2023-02-03T22:37:52.975Z,3.60
2023-02-03T22:40:24.329Z,3.70
2023-02-03T22:42:55.226Z,3.70
2023-02-03T22:45:26.392Z,3.60
2023-02-03T22:47:59.110Z,3.60
2023-02-03T22:50:35.936Z,3.60
2023-02-03T22:53:04.331Z,3.40
2023-02-03T22:55:35.696Z,3.60
2023-02-03T22:58:07.285Z,3.40
2023-02-03T23:00:38.441Z,3.50
2023-02-03T23:03:09.521Z,3.60
2023-02-03T23:05:40.535Z,3.60
2023-02-03T23:08:11.271Z,3.30
2023-02-03T23:10:42.430Z,3.10
2023-02-03T23:13:13.325Z,2.90
2023-02-03T23:15:44.381Z,3.00
2023-02-03T23:18:15.472Z,3.20
2023-02-03T23:20:46.619Z,3.20
2023-02-03T23:23:17.555Z,3.20
2023-02-03T23:25:49.756Z,3.10
2023-02-03T23:28:20.699Z,3.00
2023-02-03T23:30:51.751Z,3.00
2023-02-03T23:33:22.859Z,3.10
2023-02-03T23:35:55.532Z,3.50
2023-02-03T23:38:26.510Z,3.40
2023-02-03T23:40:57.365Z,3.30
2023-02-03T23:43:28.427Z,3.20
2023-02-03T23:45:59.669Z,2.90
2023-02-03T23:48:30.562Z,3.20
2023-02-03T23:51:01.549Z,3.10
2023-02-03T23:53:32.594Z,2.80
2023-02-03T23:56:03.784Z,2.70
2023-02-03T23:58:34.892Z,2.80
